This is the latest recevied weather packets stored in our database for station/object W4ZHA. If no packets are shown the sender has not sent any weather packets the latest 10 day(s).
| Time | Temp. | Humidity | Pressure | Rain* | Wind** | Luminosity | Snow |
|---|---|---|---|---|---|---|---|
| 1788029535 | 31.67° C | 54% | 1020 hPa | 0 mm | - | 501 W/m² | - |
| 1788029234 | 31.67° C | 53% | 1020.3 hPa | 0 mm | - | 493 W/m² | - |
| 1788028929 | 32.78° C | 54% | 1020 hPa | 0 mm | - | 494 W/m² | - |
| 1788028629 | 31.67° C | 55% | 1020 hPa | 0 mm | - | 349 W/m² | - |
| 1788028324 | 32.22° C | 54% | 1020.3 hPa | 0 mm | - | 484 W/m² | - |
| 1788028019 | 31.67° C | 55% | 1020.3 hPa | 0 mm | - | 485 W/m² | - |
| 1788027714 | 32.78° C | 53% | 1020.3 hPa | 0 mm | - | 484 W/m² | - |
| 1788027413 | 32.22° C | 53% | 1020.3 hPa | 0 mm | - | 478 W/m² | - |
| 1788027109 | 30.56° C | 57% | 1020.3 hPa | 0 mm | - | 472 W/m² | - |
| 1788026803 | 30.56° C | 57% | 1020.6 hPa | 0 mm | - | 465 W/m² | - |
| 1788026499 | 30.56° C | 57% | 1020.6 hPa | 0 mm | - | 463 W/m² | - |
| 1788026198 | 31.11° C | 56% | 1020.6 hPa | 0 mm | - | 454 W/m² | - |
| 1788025897 | 30° C | 58% | 1020.6 hPa | 0 mm | - | 455 W/m² | - |
| 1788025598 | 30° C | 58% | 1020.6 hPa | 0 mm | - | 455 W/m² | - |
| 1788025297 | 30° C | 58% | 1021 hPa | 0 mm | - | 452 W/m² | - |
| 1788024991 | 30° C | 57% | 1021 hPa | 0 mm | - | 454 W/m² | - |
| 1788024686 | 32.22° C | 53% | 1021 hPa | 0 mm | - | 458 W/m² | - |
| 1788024382 | 31.67° C | 56% | 1021.3 hPa | 0 mm | - | 456 W/m² | - |
| 1788024078 | 30° C | 58% | 1021 hPa | 0 mm | - | 454 W/m² | - |
| 1788023778 | 30.56° C | 57% | 1021.3 hPa | 0 mm | - | 455 W/m² | - |
| 1788023473 | 31.67° C | 56% | 1021.3 hPa | 0 mm | - | 448 W/m² | - |
| 1788023168 | 30.56° C | 57% | 1021.3 hPa | 0 mm | - | 444 W/m² | - |
| 1788022869 | 30.56° C | 57% | 1021.3 hPa | 0 mm | - | 461 W/m² | - |
| 1788022565 | 31.67° C | 56% | 1021.8 hPa | 0 mm | - | 444 W/m² | - |
| 1788022261 | 31.67° C | 55% | 1021.3 hPa | 0 mm | - | 429 W/m² | - |
* Rain latest hour (hover to see other rain measurements)
** Current wind speed in m/s (hover to see current wind gust speed)